Aviation Digital Data Service (ADDS)

Output produced by METARs form (0238 UTC 22 February 2019)
found at http://www.aviationweather.gov/metar/data/
 
METAR text: KSFB 220153Z 13006KT 10SM SCT095 22/20 A3011 RMK AO2 SLP194 T02170200
Conditions at: KSFB (SANFORD/ORLANDO , FL, US) observed 0153 UTC 22 February 2019
Temperature: 21.7°C (71°F)
Dewpoint: 20.0°C (68°F) [RH = 90%]
Pressure (altimeter): 30.11 inches Hg (1019.7 mb)
[Sea-level pressure: 1019.4 mb]
Winds: from the SE (130 degrees) at 7 MPH (6 knots; 3.1 m/s)
Visibility: 10 or more miles (16+ km)
Ceiling: at least 12,000 feet AGL
Clouds: scattered clouds at 9500 feet AGL
Weather: no significant weather observed at this time

METAR text: KSFB 220053Z 09006KT 10SM CLR 22/21 A3010 RMK AO2 SLP190 T02220206
Conditions at: KSFB (SANFORD/ORLANDO , FL, US) observed 0053 UTC 22 February 2019
Temperature: 22.2°C (72°F)
Dewpoint: 20.6°C (69°F) [RH = 91%]
Pressure (altimeter): 30.10 inches Hg (1019.4 mb)
[Sea-level pressure: 1019.0 mb]
Winds: from the E (90 degrees) at 7 MPH (6 knots; 3.1 m/s)
Visibility: 10 or more miles (16+ km)
Ceiling: at least 12,000 feet AGL
Clouds: sky clear below 12,000 feet AGL
Weather: no significant weather observed at this time

METAR text: KSFB 212353Z 11007KT 10SM CLR 23/21 A3009 RMK AO2 SLP186 60002 T02330206 10283 20233 53005
Conditions at: KSFB (SANFORD/ORLANDO , FL, US) observed 2353 UTC 21 February 2019
Temperature: 23.3°C (74°F)
Dewpoint: 20.6°C (69°F) [RH = 85%]
Pressure (altimeter): 30.09 inches Hg (1019.0 mb)
[Sea-level pressure: 1018.6 mb]
Winds: from the ESE (110 degrees) at 8 MPH (7 knots; 3.6 m/s)
Visibility: 10 or more miles (16+ km)
Ceiling: at least 12,000 feet AGL
Clouds: sky clear below 12,000 feet AGL
Weather: no significant weather observed at this time

METAR text: KSFB 212253Z 10007KT 10SM FEW041 SCT049 OVC090 25/22 A3008 RMK AO2 RAB05E31 SLP184 P0002 T02500222
Conditions at: KSFB (SANFORD/ORLANDO , FL, US) observed 2253 UTC 21 February 2019
Temperature: 25.0°C (77°F)
Dewpoint: 22.2°C (72°F) [RH = 84%]
Pressure (altimeter): 30.08 inches Hg (1018.7 mb)
[Sea-level pressure: 1018.4 mb]
Winds: from the E (100 degrees) at 8 MPH (7 knots; 3.6 m/s)
Visibility: 10 or more miles (16+ km)
Ceiling: 9000 feet AGL
Clouds: few clouds at 4100 feet AGL
scattered clouds at 4900 feet AGL
overcast cloud deck at 9000 feet AGL
Weather: no significant weather observed at this time

METAR text: KSFB 212153Z 04006KT 10SM SCT065 BKN080 27/21 A3007 RMK AO2 SLP181 T02720211
Conditions at: KSFB (SANFORD/ORLANDO , FL, US) observed 2153 UTC 21 February 2019
Temperature: 27.2°C (81°F)
Dewpoint: 21.1°C (70°F) [RH = 69%]
Pressure (altimeter): 30.07 inches Hg (1018.4 mb)
[Sea-level pressure: 1018.1 mb]
Winds: from the NE (40 degrees) at 7 MPH (6 knots; 3.1 m/s)
Visibility: 10 or more miles (16+ km)
Ceiling: 8000 feet AGL
Clouds: scattered clouds at 6500 feet AGL
broken clouds at 8000 feet AGL
Weather: no significant weather observed at this time

METAR text: KSFB 212053Z 33007KT 10SM CLR 27/22 A3007 RMK AO2 SLP181 60000 T02720217 56016
Conditions at: KSFB (SANFORD/ORLANDO , FL, US) observed 2053 UTC 21 February 2019
Temperature: 27.2°C (81°F)
Dewpoint: 21.7°C (71°F) [RH = 72%]
Pressure (altimeter): 30.07 inches Hg (1018.4 mb)
[Sea-level pressure: 1018.1 mb]
Winds: from the NNW (330 degrees) at 8 MPH (7 knots; 3.6 m/s)
Visibility: 10 or more miles (16+ km)
Ceiling: at least 12,000 feet AGL
Clouds: sky clear below 12,000 feet AGL
Weather: no significant weather observed at this time

METAR text: KSFB 211953Z 31009KT 10SM SCT039 BKN047 OVC095 25/21 A3008 RMK AO2 RAE09 SLP186 P0000 T02500211
Conditions at: KSFB (SANFORD/ORLANDO , FL, US) observed 1953 UTC 21 February 2019
Temperature: 25.0°C (77°F)
Dewpoint: 21.1°C (70°F) [RH = 79%]
Pressure (altimeter): 30.08 inches Hg (1018.7 mb)
[Sea-level pressure: 1018.6 mb]
Winds: from the NW (310 degrees) at 10 MPH (9 knots; 4.6 m/s)
Visibility: 10 or more miles (16+ km)
Ceiling: 4700 feet AGL
Clouds: scattered clouds at 3900 feet AGL
broken clouds at 4700 feet AGL
overcast cloud deck at 9500 feet AGL
Weather: no significant weather observed at this time

METAR text: KSFB 211915Z 24007KT 10SM SCT027 BKN048 OVC080 24/22 A3010 RMK AO2 RAE09 P0000 T02390217
Conditions at: KSFB (SANFORD/ORLANDO , FL, US) observed 1915 UTC 21 February 2019
Temperature: 23.9°C (75°F)
Dewpoint: 21.7°C (71°F) [RH = 88%]
Pressure (altimeter): 30.10 inches Hg (1019.4 mb)
Winds: from the WSW (240 degrees) at 8 MPH (7 knots; 3.6 m/s)
Visibility: 10 or more miles (16+ km)
Ceiling: 4800 feet AGL
Clouds: scattered clouds at 2700 feet AGL
broken clouds at 4800 feet AGL
overcast cloud deck at 8000 feet AGL
Weather: no significant weather observed at this time

METAR text: KSFB 211900Z 22006KT 10SM -RA BKN027 BKN035 OVC055 23/21 A3010 RMK AO2 P0000 T02330211
Conditions at: KSFB (SANFORD/ORLANDO , FL, US) observed 1900 UTC 21 February 2019
Temperature: 23.3°C (74°F)
Dewpoint: 21.1°C (70°F) [RH = 87%]
Pressure (altimeter): 30.10 inches Hg (1019.4 mb)
Winds: from the SW (220 degrees) at 7 MPH (6 knots; 3.1 m/s)
Visibility: 10 or more miles (16+ km)
Ceiling: 2700 feet AGL
Clouds: broken clouds at 2700 feet AGL
broken clouds at 3500 feet AGL
overcast cloud deck at 5500 feet AGL
Weather: -RA  (light rain)

METAR text: KSFB 211853Z 24009KT 10SM -RA SCT023 BKN031 OVC070 24/21 A3010 RMK AO2 RAB43 SLP191 P0000 T02440211
Conditions at: KSFB (SANFORD/ORLANDO , FL, US) observed 1853 UTC 21 February 2019
Temperature: 24.4°C (76°F)
Dewpoint: 21.1°C (70°F) [RH = 82%]
Pressure (altimeter): 30.10 inches Hg (1019.4 mb)
[Sea-level pressure: 1019.1 mb]
Winds: from the WSW (240 degrees) at 10 MPH (9 knots; 4.6 m/s)
Visibility: 10 or more miles (16+ km)
Ceiling: 3100 feet AGL
Clouds: scattered clouds at 2300 feet AGL
broken clouds at 3100 feet AGL
overcast cloud deck at 7000 feet AGL
Weather: -RA  (light rain)

METAR text: KSFB 211753Z 11008G15KT 10SM CLR 28/21 A3012 RMK AO2 SLP198 60000 T02780206 10283 20183 58023
Conditions at: KSFB (SANFORD/ORLANDO , FL, US) observed 1753 UTC 21 February 2019
Temperature: 27.8°C (82°F)
Dewpoint: 20.6°C (69°F) [RH = 65%]
Pressure (altimeter): 30.12 inches Hg (1020.1 mb)
[Sea-level pressure: 1019.8 mb]
Winds: from the ESE (110 degrees) at 9 MPH (8 knots; 4.1 m/s)
gusting to 17 MPH (15 knots; 7.7 m/s)
Visibility: 10 or more miles (16+ km)
Ceiling: at least 12,000 feet AGL
Clouds: sky clear below 12,000 feet AGL
Weather: no significant weather observed at this time

METAR text: KSFB 211653Z 15004KT 10SM FEW021 FEW027 BKN085 27/22 A3016 RMK AO2 RAB11E24 SLP211 P0000 T02670217
Conditions at: KSFB (SANFORD/ORLANDO , FL, US) observed 1653 UTC 21 February 2019
Temperature: 26.7°C (80°F)
Dewpoint: 21.7°C (71°F) [RH = 74%]
Pressure (altimeter): 30.16 inches Hg (1021.4 mb)
[Sea-level pressure: 1021.1 mb]
Winds: from the SSE (150 degrees) at 5 MPH (4 knots; 2.1 m/s)
Visibility: 10 or more miles (16+ km)
Ceiling: 8500 feet AGL
Clouds: few clouds at 2100 feet AGL
few clouds at 2700 feet AGL
broken clouds at 8500 feet AGL
Weather: no significant weather observed at this time

METAR text: KSFB 211553Z 14005KT 10SM SCT038 BKN045 BKN055 26/22 A3018 RMK AO2 SLP218 T02610217
Conditions at: KSFB (SANFORD/ORLANDO , FL, US) observed 1553 UTC 21 February 2019
Temperature: 26.1°C (79°F)
Dewpoint: 21.7°C (71°F) [RH = 77%]
Pressure (altimeter): 30.18 inches Hg (1022.1 mb)
[Sea-level pressure: 1021.8 mb]
Winds: from the SE (140 degrees) at 6 MPH (5 knots; 2.6 m/s)
Visibility: 10 or more miles (16+ km)
Ceiling: 4500 feet AGL
Clouds: scattered clouds at 3800 feet AGL
broken clouds at 4500 feet AGL
broken clouds at 5500 feet AGL
Weather: no significant weather observed at this time

METAR text: KSFB 211453Z 14005KT 10SM FEW049 OVC060 23/22 A3019 RMK AO2 SLP220 T02330217 53022
Conditions at: KSFB (SANFORD/ORLANDO , FL, US) observed 1453 UTC 21 February 2019
Temperature: 23.3°C (74°F)
Dewpoint: 21.7°C (71°F) [RH = 91%]
Pressure (altimeter): 30.19 inches Hg (1022.4 mb)
[Sea-level pressure: 1022.0 mb]
Winds: from the SE (140 degrees) at 6 MPH (5 knots; 2.6 m/s)
Visibility: 10 or more miles (16+ km)
Ceiling: 6000 feet AGL
Clouds: few clouds at 4900 feet AGL
overcast cloud deck at 6000 feet AGL
Weather: no significant weather observed at this time

METAR text: KSFB 211353Z 00000KT 10SM FEW039 OVC060 22/22 A3016 RMK AO2 SLP212 T02170217
Conditions at: KSFB (SANFORD/ORLANDO , FL, US) observed 1353 UTC 21 February 2019
Temperature: 21.7°C (71°F)
Dewpoint: 21.7°C (71°F) [RH = 100%]
Pressure (altimeter): 30.16 inches Hg (1021.4 mb)
[Sea-level pressure: 1021.2 mb]
Winds: calm
Visibility: 10 or more miles (16+ km)
Ceiling: 6000 feet AGL
Clouds: few clouds at 3900 feet AGL
overcast cloud deck at 6000 feet AGL
Weather: no significant weather observed at this time

METAR text: KSFB 211328Z 00000KT 9SM FEW014 BKN038 OVC060 21/21 A3015 RMK AO2 T02110211
Conditions at: KSFB (SANFORD/ORLANDO , FL, US) observed 1328 UTC 21 February 2019
Temperature: 21.1°C (70°F)
Dewpoint: 21.1°C (70°F) [RH = 100%]
Pressure (altimeter): 30.15 inches Hg (1021.1 mb)
Winds: calm
Visibility: 9 miles (14 km)
Ceiling: 3800 feet AGL
Clouds: few clouds at 1400 feet AGL
broken clouds at 3800 feet AGL
overcast cloud deck at 6000 feet AGL
Weather: no significant weather observed at this time

METAR text: KSFB 211321Z 00000KT 7SM BKN012 BKN036 OVC060 21/21 A3015 RMK AO2 T02060206
Conditions at: KSFB (SANFORD/ORLANDO , FL, US) observed 1321 UTC 21 February 2019
Temperature: 20.6°C (69°F)
Dewpoint: 20.6°C (69°F) [RH = 100%]
Pressure (altimeter): 30.15 inches Hg (1021.1 mb)
Winds: calm
Visibility: 7 miles (11 km)
Ceiling: 1200 feet AGL
Clouds: broken clouds at 1200 feet AGL
broken clouds at 3600 feet AGL
overcast cloud deck at 6000 feet AGL
Weather: no significant weather observed at this time

METAR text: KSFB 211253Z 00000KT 1/2SM FG CLR 19/19 A3014 RMK AO2 SLP203 T01890189
Conditions at: KSFB (SANFORD/ORLANDO , FL, US) observed 1253 UTC 21 February 2019
Temperature: 18.9°C (66°F)
Dewpoint: 18.9°C (66°F) [RH = 100%]
Pressure (altimeter): 30.14 inches Hg (1020.7 mb)
[Sea-level pressure: 1020.3 mb]
Winds: calm
Visibility: 0.50 miles (0.80 km)
Ceiling: at least 12,000 feet AGL
Clouds: sky clear below 12,000 feet AGL
Weather: FG  (fog)

METAR text: KSFB 211209Z 00000KT 1/4SM FG CLR 18/18 A3013 RMK AO2 T01830183
Conditions at: KSFB (SANFORD/ORLANDO , FL, US) observed 1209 UTC 21 February 2019
Temperature: 18.3°C (65°F)
Dewpoint: 18.3°C (65°F) [RH = 100%]
Pressure (altimeter): 30.13 inches Hg (1020.4 mb)
Winds: calm
Visibility: 0.25 miles (0.40 km)
Ceiling: at least 12,000 feet AGL
Clouds: sky clear below 12,000 feet AGL
Weather: FG  (fog)

METAR text: KSFB 211153Z 12003KT 1/2SM FG CLR 18/18 A3012 RMK AO2 SLP199 T01830183 10217 20178 53011
Conditions at: KSFB (SANFORD/ORLANDO , FL, US) observed 1153 UTC 21 February 2019
Temperature: 18.3°C (65°F)
Dewpoint: 18.3°C (65°F) [RH = 100%]
Pressure (altimeter): 30.12 inches Hg (1020.1 mb)
[Sea-level pressure: 1019.9 mb]
Winds: from the ESE (120 degrees) at 3 MPH (3 knots; 1.5 m/s)
Visibility: 0.50 miles (0.80 km)
Ceiling: at least 12,000 feet AGL
Clouds: sky clear below 12,000 feet AGL
Weather: FG  (fog)

METAR text: KSFB 211138Z 00000KT 1/2SM FG CLR 19/19 A3012 RMK AO2 T01890189
Conditions at: KSFB (SANFORD/ORLANDO , FL, US) observed 1138 UTC 21 February 2019
Temperature: 18.9°C (66°F)
Dewpoint: 18.9°C (66°F) [RH = 100%]
Pressure (altimeter): 30.12 inches Hg (1020.1 mb)
Winds: calm
Visibility: 0.50 miles (0.80 km)
Ceiling: at least 12,000 feet AGL
Clouds: sky clear below 12,000 feet AGL
Weather: FG  (fog)

METAR text: KSFB 211131Z 00000KT 4SM MIFG CLR 18/18 A3012 RMK AO2 T01830183
Conditions at: KSFB (SANFORD/ORLANDO , FL, US) observed 1131 UTC 21 February 2019
Temperature: 18.3°C (65°F)
Dewpoint: 18.3°C (65°F) [RH = 100%]
Pressure (altimeter): 30.12 inches Hg (1020.1 mb)
Winds: calm
Visibility: 4 miles ( 6 km)
Ceiling: at least 12,000 feet AGL
Clouds: sky clear below 12,000 feet AGL
Weather: MIFG  (shallow fog)

METAR text: KSFB 211116Z 00000KT 1/4SM FG VV009 18/18 A3012 RMK AO2 T01830183
Conditions at: KSFB (SANFORD/ORLANDO , FL, US) observed 1116 UTC 21 February 2019
Temperature: 18.3°C (65°F)
Dewpoint: 18.3°C (65°F) [RH = 100%]
Pressure (altimeter): 30.12 inches Hg (1020.1 mb)
Winds: calm
Visibility: 0.25 miles (0.40 km)
Ceiling: indefinite ceiling with vertical visibility of 900 feet AGL
Clouds: obscured sky
Weather: FG  (fog)

METAR text: KSFB 211106Z 00000KT 1/4SM FG VV010 18/18 A3011 RMK AO2 T01830183
Conditions at: KSFB (SANFORD/ORLANDO , FL, US) observed 1106 UTC 21 February 2019
Temperature: 18.3°C (65°F)
Dewpoint: 18.3°C (65°F) [RH = 100%]
Pressure (altimeter): 30.11 inches Hg (1019.7 mb)
Winds: calm
Visibility: 0.25 miles (0.40 km)
Ceiling: indefinite ceiling with vertical visibility of 1000 feet AGL
Clouds: obscured sky
Weather: FG  (fog)

METAR text: KSFB 211055Z AUTO 00000KT 3/4SM BR VV012 19/19 A3011 RMK AO2 T01890189
Conditions at: KSFB (SANFORD/ORLANDO , FL, US) observed 1055 UTC 21 February 2019
Temperature: 18.9°C (66°F)
Dewpoint: 18.9°C (66°F) [RH = 100%]
Pressure (altimeter): 30.11 inches Hg (1019.7 mb)
Winds: calm
Visibility: 0.75 miles (1.21 km)
Ceiling: indefinite ceiling with vertical visibility of 1200 feet AGL
Clouds: obscured sky
Weather: BR  (mist)

METAR text: KSFB 211053Z AUTO 00000KT 1 1/4SM BR CLR 19/19 A3010 RMK AO2 SLP193 T01940194
Conditions at: KSFB (SANFORD/ORLANDO , FL, US) observed 1053 UTC 21 February 2019
Temperature: 19.4°C (67°F)
Dewpoint: 19.4°C (67°F) [RH = 100%]
Pressure (altimeter): 30.10 inches Hg (1019.4 mb)
[Sea-level pressure: 1019.3 mb]
Winds: calm
Visibility: 1.25 miles (2.01 km)
Ceiling: at least 12,000 feet AGL
Clouds: sky clear below 12,000 feet AGL
Weather: BR  (mist)

METAR text: KSFB 210953Z AUTO 16004KT 10SM CLR 20/20 A3010 RMK AO2 SLP190 T02000200
Conditions at: KSFB (SANFORD/ORLANDO , FL, US) observed 0953 UTC 21 February 2019
Temperature: 20.0°C (68°F)
Dewpoint: 20.0°C (68°F) [RH = 100%]
Pressure (altimeter): 30.10 inches Hg (1019.4 mb)
[Sea-level pressure: 1019.0 mb]
Winds: from the SSE (160 degrees) at 5 MPH (4 knots; 2.1 m/s)
Visibility: 10 or more miles (16+ km)
Ceiling: at least 12,000 feet AGL
Clouds: sky clear below 12,000 feet AGL
Weather: automated observation with no human augmentation;
there may or may not be significant weather present at this time

METAR text: KSFB 210853Z AUTO 17005KT 10SM CLR 21/20 A3009 RMK AO2 SLP187 T02110200 56009
Conditions at: KSFB (SANFORD/ORLANDO , FL, US) observed 0853 UTC 21 February 2019
Temperature: 21.1°C (70°F)
Dewpoint: 20.0°C (68°F) [RH = 93%]
Pressure (altimeter): 30.09 inches Hg (1019.0 mb)
[Sea-level pressure: 1018.7 mb]
Winds: from the S (170 degrees) at 6 MPH (5 knots; 2.6 m/s)
Visibility: 10 or more miles (16+ km)
Ceiling: at least 12,000 feet AGL
Clouds: sky clear below 12,000 feet AGL
Weather: automated observation with no human augmentation;
there may or may not be significant weather present at this time

METAR text: KSFB 210753Z AUTO 18004KT 10SM CLR 21/20 A3010 RMK AO2 SLP190 T02110200
Conditions at: KSFB (SANFORD/ORLANDO , FL, US) observed 0753 UTC 21 February 2019
Temperature: 21.1°C (70°F)
Dewpoint: 20.0°C (68°F) [RH = 93%]
Pressure (altimeter): 30.10 inches Hg (1019.4 mb)
[Sea-level pressure: 1019.0 mb]
Winds: from the S (180 degrees) at 5 MPH (4 knots; 2.1 m/s)
Visibility: 10 or more miles (16+ km)
Ceiling: at least 12,000 feet AGL
Clouds: sky clear below 12,000 feet AGL
Weather: automated observation with no human augmentation;
there may or may not be significant weather present at this time

METAR text: KSFB 210653Z AUTO 18004KT 10SM CLR 21/20 A3011 RMK AO2 SLP194 T02110200
Conditions at: KSFB (SANFORD/ORLANDO , FL, US) observed 0653 UTC 21 February 2019
Temperature: 21.1°C (70°F)
Dewpoint: 20.0°C (68°F) [RH = 93%]
Pressure (altimeter): 30.11 inches Hg (1019.7 mb)
[Sea-level pressure: 1019.4 mb]
Winds: from the S (180 degrees) at 5 MPH (4 knots; 2.1 m/s)
Visibility: 10 or more miles (16+ km)
Ceiling: at least 12,000 feet AGL
Clouds: sky clear below 12,000 feet AGL
Weather: automated observation with no human augmentation;
there may or may not be significant weather present at this time

METAR text: KSFB 210553Z AUTO 17006KT 10SM CLR 22/21 A3012 RMK AO2 SLP197 T02170206 10244 20211 58000
Conditions at: KSFB (SANFORD/ORLANDO , FL, US) observed 0553 UTC 21 February 2019
Temperature: 21.7°C (71°F)
Dewpoint: 20.6°C (69°F) [RH = 93%]
Pressure (altimeter): 30.12 inches Hg (1020.1 mb)
[Sea-level pressure: 1019.7 mb]
Winds: from the S (170 degrees) at 7 MPH (6 knots; 3.1 m/s)
Visibility: 10 or more miles (16+ km)
Ceiling: at least 12,000 feet AGL
Clouds: sky clear below 12,000 feet AGL
Weather: automated observation with no human augmentation;
there may or may not be significant weather present at this time

METAR text: KSFB 210453Z AUTO 16005KT 10SM CLR 22/21 A3012 RMK AO2 SLP197 T02220206 403000189
Conditions at: KSFB (SANFORD/ORLANDO , FL, US) observed 0453 UTC 21 February 2019
Temperature: 22.2°C (72°F)
Dewpoint: 20.6°C (69°F) [RH = 91%]
Pressure (altimeter): 30.12 inches Hg (1020.1 mb)
[Sea-level pressure: 1019.7 mb]
Winds: from the SSE (160 degrees) at 6 MPH (5 knots; 2.6 m/s)
Visibility: 10 or more miles (16+ km)
Ceiling: at least 12,000 feet AGL
Clouds: sky clear below 12,000 feet AGL
Weather: automated observation with no human augmentation;
there may or may not be significant weather present at this time

METAR text: KSFB 210353Z AUTO 15005KT 10SM CLR 22/21 A3012 RMK AO2 SLP197 T02170206
Conditions at: KSFB (SANFORD/ORLANDO , FL, US) observed 0353 UTC 21 February 2019
Temperature: 21.7°C (71°F)
Dewpoint: 20.6°C (69°F) [RH = 93%]
Pressure (altimeter): 30.12 inches Hg (1020.1 mb)
[Sea-level pressure: 1019.7 mb]
Winds: from the SSE (150 degrees) at 6 MPH (5 knots; 2.6 m/s)
Visibility: 10 or more miles (16+ km)
Ceiling: at least 12,000 feet AGL
Clouds: sky clear below 12,000 feet AGL
Weather: automated observation with no human augmentation;
there may or may not be significant weather present at this time

METAR text: KSFB 210253Z 12005KT 10SM SCT090 22/21 A3012 RMK AO2 SLP197 T02170206 51016
Conditions at: KSFB (SANFORD/ORLANDO , FL, US) observed 0253 UTC 21 February 2019
Temperature: 21.7°C (71°F)
Dewpoint: 20.6°C (69°F) [RH = 93%]
Pressure (altimeter): 30.12 inches Hg (1020.1 mb)
[Sea-level pressure: 1019.7 mb]
Winds: from the ESE (120 degrees) at 6 MPH (5 knots; 2.6 m/s)
Visibility: 10 or more miles (16+ km)
Ceiling: at least 12,000 feet AGL
Clouds: scattered clouds at 9000 feet AGL
Weather: no significant weather observed at this time

METAR text: KSFB 210153Z 13007KT 10SM CLR 23/21 A3010 RMK AO2 SLP193 T02280211
Conditions at: KSFB (SANFORD/ORLANDO , FL, US) observed 0153 UTC 21 February 2019
Temperature: 22.8°C (73°F)
Dewpoint: 21.1°C (70°F) [RH = 90%]
Pressure (altimeter): 30.10 inches Hg (1019.4 mb)
[Sea-level pressure: 1019.3 mb]
Winds: from the SE (130 degrees) at 8 MPH (7 knots; 3.6 m/s)
Visibility: 10 or more miles (16+ km)
Ceiling: at least 12,000 feet AGL
Clouds: sky clear below 12,000 feet AGL
Weather: no significant weather observed at this time

METAR text: KSFB 210053Z 13008KT 10SM BKN060 24/21 A3009 RMK AO2 SLP188 T02390211
Conditions at: KSFB (SANFORD/ORLANDO , FL, US) observed 0053 UTC 21 February 2019
Temperature: 23.9°C (75°F)
Dewpoint: 21.1°C (70°F) [RH = 84%]
Pressure (altimeter): 30.09 inches Hg (1019.0 mb)
[Sea-level pressure: 1018.8 mb]
Winds: from the SE (130 degrees) at 9 MPH (8 knots; 4.1 m/s)
Visibility: 10 or more miles (16+ km)
Ceiling: 6000 feet AGL
Clouds: broken clouds at 6000 feet AGL
Weather: no significant weather observed at this time

METAR text: KSFB 202353Z 12010KT 10SM SCT060 SCT080 24/22 A3007 RMK AO2 SLP181 T02440217 10300 20244 53009
Conditions at: KSFB (SANFORD/ORLANDO , FL, US) observed 2353 UTC 20 February 2019
Temperature: 24.4°C (76°F)
Dewpoint: 21.7°C (71°F) [RH = 85%]
Pressure (altimeter): 30.07 inches Hg (1018.4 mb)
[Sea-level pressure: 1018.1 mb]
Winds: from the ESE (120 degrees) at 12 MPH (10 knots; 5.1 m/s)
Visibility: 10 or more miles (16+ km)
Ceiling: at least 12,000 feet AGL
Clouds: scattered clouds at 6000 feet AGL
scattered clouds at 8000 feet AGL
Weather: no significant weather observed at this time

METAR text: KSFB 202253Z 11009KT 10SM FEW080 26/22 A3005 RMK AO2 SLP176 T02610217
Conditions at: KSFB (SANFORD/ORLANDO , FL, US) observed 2253 UTC 20 February 2019
Temperature: 26.1°C (79°F)
Dewpoint: 21.7°C (71°F) [RH = 77%]
Pressure (altimeter): 30.05 inches Hg (1017.7 mb)
[Sea-level pressure: 1017.6 mb]
Winds: from the ESE (110 degrees) at 10 MPH (9 knots; 4.6 m/s)
Visibility: 10 or more miles (16+ km)
Ceiling: at least 12,000 feet AGL
Clouds: few clouds at 8000 feet AGL
Weather: no significant weather observed at this time

METAR text: KSFB 202153Z 12011KT 10SM SCT043 SCT055 BKN085 28/22 A3004 RMK AO2 SLP172 T02830217
Conditions at: KSFB (SANFORD/ORLANDO , FL, US) observed 2153 UTC 20 February 2019
Temperature: 28.3°C (83°F)
Dewpoint: 21.7°C (71°F) [RH = 67%]
Pressure (altimeter): 30.04 inches Hg (1017.4 mb)
[Sea-level pressure: 1017.2 mb]
Winds: from the ESE (120 degrees) at 13 MPH (11 knots; 5.7 m/s)
Visibility: 10 or more miles (16+ km)
Ceiling: 8500 feet AGL
Clouds: scattered clouds at 4300 feet AGL
scattered clouds at 5500 feet AGL
broken clouds at 8500 feet AGL
Weather: no significant weather observed at this time

METAR text: KSFB 202053Z 16008KT 10SM FEW050 SCT080 28/21 A3004 RMK AO2 SLP172 T02830206 56016
Conditions at: KSFB (SANFORD/ORLANDO , FL, US) observed 2053 UTC 20 February 2019
Temperature: 28.3°C (83°F)
Dewpoint: 20.6°C (69°F) [RH = 63%]
Pressure (altimeter): 30.04 inches Hg (1017.4 mb)
[Sea-level pressure: 1017.2 mb]
Winds: from the SSE (160 degrees) at 9 MPH (8 knots; 4.1 m/s)
Visibility: 10 or more miles (16+ km)
Ceiling: at least 12,000 feet AGL
Clouds: few clouds at 5000 feet AGL
scattered clouds at 8000 feet AGL
Weather: no significant weather observed at this time

METAR text: KSFB 201953Z 14008KT 10SM FEW037 SCT046 BKN080 28/21 A3005 RMK AO2 SLP174 T02830206
Conditions at: KSFB (SANFORD/ORLANDO , FL, US) observed 1953 UTC 20 February 2019
Temperature: 28.3°C (83°F)
Dewpoint: 20.6°C (69°F) [RH = 63%]
Pressure (altimeter): 30.05 inches Hg (1017.7 mb)
[Sea-level pressure: 1017.4 mb]
Winds: from the SE (140 degrees) at 9 MPH (8 knots; 4.1 m/s)
Visibility: 10 or more miles (16+ km)
Ceiling: 8000 feet AGL
Clouds: few clouds at 3700 feet AGL
scattered clouds at 4600 feet AGL
broken clouds at 8000 feet AGL
Weather: no significant weather observed at this time

METAR text: KSFB 201853Z 15009KT 10SM FEW037 OVC065 28/21 A3007 RMK AO2 SLP179 T02780211
Conditions at: KSFB (SANFORD/ORLANDO , FL, US) observed 1853 UTC 20 February 2019
Temperature: 27.8°C (82°F)
Dewpoint: 21.1°C (70°F) [RH = 67%]
Pressure (altimeter): 30.07 inches Hg (1018.4 mb)
[Sea-level pressure: 1017.9 mb]
Winds: from the SSE (150 degrees) at 10 MPH (9 knots; 4.6 m/s)
Visibility: 10 or more miles (16+ km)
Ceiling: 6500 feet AGL
Clouds: few clouds at 3700 feet AGL
overcast cloud deck at 6500 feet AGL
Weather: no significant weather observed at this time

METAR text: KSFB 201753Z 15011KT 10SM SCT029 BKN035 OVC070 27/21 A3009 RMK AO2 RAB34E44 SLP188 P0000 60000 T02670211 10278 20189 58018
Conditions at: KSFB (SANFORD/ORLANDO , FL, US) observed 1753 UTC 20 February 2019
Temperature: 26.7°C (80°F)
Dewpoint: 21.1°C (70°F) [RH = 71%]
Pressure (altimeter): 30.09 inches Hg (1019.0 mb)
[Sea-level pressure: 1018.8 mb]
Winds: from the SSE (150 degrees) at 13 MPH (11 knots; 5.7 m/s)
Visibility: 10 or more miles (16+ km)
Ceiling: 3500 feet AGL
Clouds: scattered clouds at 2900 feet AGL
broken clouds at 3500 feet AGL
overcast cloud deck at 7000 feet AGL
Weather: no significant weather observed at this time

METAR text: KSFB 201653Z 16011KT 10SM FEW028 BKN036 OVC048 27/21 A3011 RMK AO2 SLP196 T02670206
Conditions at: KSFB (SANFORD/ORLANDO , FL, US) observed 1653 UTC 20 February 2019
Temperature: 26.7°C (80°F)
Dewpoint: 20.6°C (69°F) [RH = 69%]
Pressure (altimeter): 30.11 inches Hg (1019.7 mb)
[Sea-level pressure: 1019.6 mb]
Winds: from the SSE (160 degrees) at 13 MPH (11 knots; 5.7 m/s)
Visibility: 10 or more miles (16+ km)
Ceiling: 3600 feet AGL
Clouds: few clouds at 2800 feet AGL
broken clouds at 3600 feet AGL
overcast cloud deck at 4800 feet AGL
Weather: no significant weather observed at this time

METAR text: KSFB 201553Z 16011KT 10SM FEW019 SCT026 OVC070 26/21 A3013 RMK AO2 SLP203 T02560211
Conditions at: KSFB (SANFORD/ORLANDO , FL, US) observed 1553 UTC 20 February 2019
Temperature: 25.6°C (78°F)
Dewpoint: 21.1°C (70°F) [RH = 76%]
Pressure (altimeter): 30.13 inches Hg (1020.4 mb)
[Sea-level pressure: 1020.3 mb]
Winds: from the SSE (160 degrees) at 13 MPH (11 knots; 5.7 m/s)
Visibility: 10 or more miles (16+ km)
Ceiling: 7000 feet AGL
Clouds: few clouds at 1900 feet AGL
scattered clouds at 2600 feet AGL
overcast cloud deck at 7000 feet AGL
Weather: no significant weather observed at this time

METAR text: KSFB 201453Z 15010G15KT 10SM BKN016 OVC022 24/22 A3014 RMK AO2 SLP206 T02440217 51008
Conditions at: KSFB (SANFORD/ORLANDO , FL, US) observed 1453 UTC 20 February 2019
Temperature: 24.4°C (76°F)
Dewpoint: 21.7°C (71°F) [RH = 85%]
Pressure (altimeter): 30.14 inches Hg (1020.7 mb)
[Sea-level pressure: 1020.6 mb]
Winds: from the SSE (150 degrees) at 12 MPH (10 knots; 5.1 m/s)
gusting to 17 MPH (15 knots; 7.7 m/s)
Visibility: 10 or more miles (16+ km)
Ceiling: 1600 feet AGL
Clouds: broken clouds at 1600 feet AGL
overcast cloud deck at 2200 feet AGL
Weather: no significant weather observed at this time

METAR text: KSFB 201442Z 15012KT 10SM BKN016 24/22 A3014 RMK AO2 T02440217
Conditions at: KSFB (SANFORD/ORLANDO , FL, US) observed 1442 UTC 20 February 2019
Temperature: 24.4°C (76°F)
Dewpoint: 21.7°C (71°F) [RH = 85%]
Pressure (altimeter): 30.14 inches Hg (1020.7 mb)
Winds: from the SSE (150 degrees) at 14 MPH (12 knots; 6.2 m/s)
Visibility: 10 or more miles (16+ km)
Ceiling: 1600 feet AGL
Clouds: broken clouds at 1600 feet AGL
Weather: no significant weather observed at this time

Forecast for: KSFB (SANFORD/ORLANDO , FL, US)
Text: KSFB 212324Z 2200/2224 12006KT P6SM FEW040 SCT050 SCT090
Forecast period: 0000 to 0900 UTC 22 February 2019
Forecast type: FROM: standard forecast or significant change
Winds: from the ESE (120 degrees) at 7 MPH (6 knots; 3.1 m/s)
Visibility: 6 or more miles 10+ km)
Ceiling: at least 12,000 feet AGL
Clouds: few clouds at 4000 feet AGL
scattered clouds at 5000 feet AGL
scattered clouds at 9000 feet AGL
Weather: no significant weather forecast for this period
Text: FM220900 VRB02KT 6SM MIFG BR FEW009 SCT040
Forecast period: 0900 to 1400 UTC 22 February 2019
Forecast type: FROM: standard forecast or significant change
Winds: variable direction winds at 2 MPH (2 knots; 1.0 m/s)
Visibility: 6 miles (10 km)
Ceiling: at least 12,000 feet AGL
Clouds: few clouds at 900 feet AGL
scattered clouds at 4000 feet AGL
Weather: MIFG BR  (shallow fog, mist)
Text: TEMPO 2210/2213 3SM MIFG BR SCT009
Forecast period: 1000 to 1300 UTC 22 February 2019
Forecast type: TEMPORARY: The following changes expected for less than half the time period
Visibility: 3 miles (5 km)
Ceiling: at least 12,000 feet AGL
Clouds: scattered clouds at 900 feet AGL
Weather: MIFG BR  (shallow fog, mist)
Text: FM221400 17007KT P6SM FEW009 SCT025
Forecast period: 1400 to 1800 UTC 22 February 2019
Forecast type: FROM: standard forecast or significant change
Winds: from the S (170 degrees) at 8 MPH (7 knots; 3.6 m/s)
Visibility: 6 or more miles 10+ km)
Ceiling: at least 12,000 feet AGL
Clouds: few clouds at 900 feet AGL
scattered clouds at 2500 feet AGL
Weather: no significant weather forecast for this period
Text: FM221800 14009KT P6SM SCT050 SCT070
Forecast period: 1800 UTC 22 February 2019 to 0000 UTC 23 February 2019
Forecast type: FROM: standard forecast or significant change
Winds: from the SE (140 degrees) at 10 MPH (9 knots; 4.6 m/s)
Visibility: 6 or more miles 10+ km)
Ceiling: at least 12,000 feet AGL
Clouds: scattered clouds at 5000 feet AGL
scattered clouds at 7000 feet AGL
Weather: no significant weather forecast for this period